New Century — A8EL5 — position and weather

sailwx.info

Track history (hours):
 
Tides and Currents Weather Stations Pressure Air Temp Water Temp Dewpoint Dewpoint Depression Visibility Wind Speed Wind Dir Waves Ship Positions

New Century

Last reported at 2017-Oct-06 14:14 UTC. Time now 2017-Oct-19 18:37 UTC.
Position N 24°20' W 114°59'.
Warning: this ship's position is 13 days out of date.

Length 330 m; draft 11 m.

Type: Tanker. MMSI: 636012275.

Date/timePositionNaut miles runAvg speedWind from/ knotsBaromVisibWave heightAir tempDewpointWater temp
2017-Oct-06 14:14N 24°20' W 114°59'313.5
2017-Oct-06 14:00N 24°23' W 114°60'2113.7
2017-Oct-06 12:27N 24°44' W 115°06'613.8
2017-Oct-06 11:59N 24°50' W 115°08'3114.0
2017-Oct-06 09:47N 25°19' W 115°18'414.2
2017-Oct-06 09:29N 25°24' W 115°19'4414.3
2017-Oct-06 06:24N 26°06' W 115°33'5214.1
2017-Oct-06 02:44N 26°55' W 115°49'914.1
2017-Oct-06 02:05N 27°04' W 115°52'214.2
2017-Oct-06 01:57N 27°06' W 115°52'1314.9
2017-Oct-06 01:04N 27°19' W 115°57'115.0
2017-Oct-06 01:01N 27°20' W 115°57'3314.5
2017-Oct-05 22:45N 27°51' W 116°07'414.3
2017-Oct-05 22:30N 27°54' W 116°08'2314.0
2017-Oct-05 20:53N 28°16' W 116°15'1213.9
2017-Oct-05 20:01N 28°28' W 116°19'114.0
2017-Oct-05 19:58N 28°28' W 116°19'814.0
2017-Oct-05 19:25N 28°36' W 116°22'913.8
2017-Oct-05 18:46N 28°44' W 116°25'413.7
2017-Oct-05 18:29N 28°48' W 116°26'1513.5
2017-Oct-05 17:22N 29°03' W 116°30'513.5
2017-Oct-05 17:00N 29°08' W 116°32'2013.2
2017-Oct-05 15:28N 29°27' W 116°39'713.4
2017-Oct-05 14:55N 29°34' W 116°41'813.3
2017-Oct-05 14:19N 29°42' W 116°43'413.3
2017-Oct-05 14:00N 29°46' W 116°45'713.4
2017-Oct-05 13:30N 29°52' W 116°47'714.0
2017-Oct-05 13:00N 29°59' W 116°49'714.2
2017-Oct-05 12:31N 30°06' W 116°51'714.3
2017-Oct-05 12:00N 30°13' W 116°53'714.5
2017-Oct-05 11:31N 30°20' W 116°55'714.3
2017-Oct-05 11:00N 30°27' W 116°57'714.0
2017-Oct-05 10:30N 30°33' W 116°60'714.1
2017-Oct-05 10:00N 30°40' W 117°02'714.0
2017-Oct-05 09:31N 30°47' W 117°04'713.9
2017-Oct-05 09:00N 30°54' W 117°06'713.9
2017-Oct-05 08:30N 31°00' W 117°08'714.0
2017-Oct-05 08:00N 31°07' W 117°10'714.3
2017-Oct-05 07:30N 31°14' W 117°12'714.2
2017-Oct-05 07:00N 31°21' W 117°15'714.0
2017-Oct-05 06:30N 31°27' W 117°17'714.1
2017-Oct-05 06:01N 31°34' W 117°19'714.1
2017-Oct-05 05:31N 31°41' W 117°21'714.2
2017-Oct-05 05:01N 31°48' W 117°23'713.8
2017-Oct-05 04:30N 31°55' W 117°26'713.5
2017-Oct-05 04:00N 32°01' W 117°28'713.5
2017-Oct-05 03:31N 32°08' W 117°30'713.3
2017-Oct-05 03:00N 32°14' W 117°32'713.1
2017-Oct-05 02:31N 32°20' W 117°34'713.1
2017-Oct-05 02:00N 32°27' W 117°37'713.4
2017-Oct-05 01:31N 32°33' W 117°39'713.3
2017-Oct-05 01:00N 32°39' W 117°43'713.4
2017-Oct-05 00:30N 32°45' W 117°47'713.4
2017-Oct-05 00:01N 32°51' W 117°50'713.5
2017-Oct-04 23:31N 32°57' W 117°54'713.4
2017-Oct-04 23:01N 33°03' W 117°57'611.8
2017-Oct-04 22:30N 33°08' W 118°01'611.5
2017-Oct-04 22:01N 33°13' W 118°04'611.5
2017-Oct-04 21:30N 33°19' W 118°06'612.1
2017-Oct-04 21:00N 33°24' W 118°08'612.0
2017-Oct-04 20:31N 33°30' W 118°11'611.8
2017-Oct-04 20:00N 33°36' W 118°13'510.1
2017-Oct-04 19:30N 33°40' W 118°12'3 6.0
2017-Oct-04 19:01N 33°43' W 118°11'2 4.7
2017-Oct-04 18:30N 33°45' W 118°13'0 0.7
2017-Oct-04 18:00N 33°45' W 118°13'0 0.0
2017-Oct-04 17:26N 33°45' W 118°13'0 0.0
2017-Oct-04 17:00N 33°45' W 118°13'0 0.0
2017-Oct-03 21:09N 33°45' W 118°13'0 0.3
2017-Oct-03 20:52N 33°45' W 118°13'0 1.2
2017-Oct-03 20:30N 33°45' W 118°13'2 4.4
2017-Oct-03 20:00N 33°43' W 118°11'3 6.3
2017-Oct-03 19:30N 33°41' W 118°09'2 3.5
2017-Oct-03 19:00N 33°42' W 118°08'0 0.8
2017-Oct-03 18:29N 33°42' W 118°08'0 0.0
2017-Oct-03 17:59N 33°42' W 118°08'0 0.0
2017-Oct-03 17:26N 33°42' W 118°08'0 0.0
2017-Oct-03 16:59N 33°42' W 118°08'0 0.0
2017-Oct-03 16:29N 33°42' W 118°08'0 0.0
2017-Oct-03 15:59N 33°42' W 118°08'0 0.0
2017-Oct-03 15:26N 33°42' W 118°08'0 0.1
2017-Oct-03 14:56N 33°42' W 118°08'0 0.1
2017-Oct-03 13:59N 33°42' W 118°08'0 0.0
2017-Oct-03 13:29N 33°42' W 118°08'0 0.0
2017-Oct-03 12:59N 33°42' W 118°08'0 0.0
2017-Oct-03 12:29N 33°42' W 118°08'0 0.0
2017-Oct-03 11:56N 33°42' W 118°08'0 0.0
2017-Oct-03 11:26N 33°42' W 118°08'0 0.0
2017-Oct-03 10:59N 33°42' W 118°08'0 0.0
2017-Oct-03 10:29N 33°42' W 118°08'0 0.1
2017-Oct-03 09:59N 33°42' W 118°08'0 0.0
2017-Oct-03 09:29N 33°42' W 118°08'0 0.1
2017-Oct-03 08:59N 33°42' W 118°08'0 0.0
2017-Oct-03 08:29N 33°42' W 118°08'0 0.0
2017-Oct-03 07:59N 33°42' W 118°08'0 0.1
2017-Oct-03 07:29N 33°42' W 118°08'0 0.1
2017-Oct-03 06:56N 33°42' W 118°08'0 0.0
2017-Oct-03 06:29N 33°42' W 118°08'0 0.1
2017-Oct-03 05:59N 33°42' W 118°08'0 0.0
2017-Oct-03 05:29N 33°42' W 118°08'0 0.1
2017-Oct-03 04:56N 33°42' W 118°07'0 0.1
2017-Oct-03 04:29N 33°42' W 118°07'0 0.0
2017-Oct-03 03:59N 33°42' W 118°07'0 0.0
2017-Oct-03 03:29N 33°42' W 118°07'0 0.0
2017-Oct-03 02:59N 33°42' W 118°07'0 0.1
2017-Oct-03 02:29N 33°42' W 118°07'0 0.1
2017-Oct-03 01:59N 33°42' W 118°07'0 0.0
2017-Oct-03 01:29N 33°42' W 118°07'0 0.1
2017-Oct-03 00:59N 33°42' W 118°07'0 0.0
2017-Oct-03 00:26N 33°42' W 118°07'0 0.1
2017-Oct-02 23:59N 33°42' W 118°08'0 0.0
2017-Oct-02 23:26N 33°42' W 118°08'0 0.0
2017-Oct-02 22:59N 33°42' W 118°08'0 0.0
2017-Oct-02 22:29N 33°42' W 118°08'0 0.0
2017-Oct-02 21:50N 33°42' W 118°08'0 0.0
2017-Oct-02 21:20N 33°42' W 118°08'0 0.0
2017-Oct-02 20:56N 33°42' W 118°08'0 0.1
2017-Oct-02 20:14N 33°42' W 118°08'0 0.0
2017-Oct-02 19:50N 33°42' W 118°08'0 0.0
2017-Oct-02 19:29N 33°42' W 118°08'0 0.0
2017-Oct-02 18:56N 33°42' W 118°08'0 0.1
2017-Oct-02 18:26N 33°42' W 118°08'0 0.0
2017-Oct-02 17:56N 33°42' W 118°08'0 0.0
2017-Oct-02 17:26N 33°42' W 118°08'0 0.0
2017-Oct-02 16:50N 33°42' W 118°08'0 0.0
2017-Oct-02 16:26N 33°42' W 118°08'0 0.0
2017-Oct-02 15:56N 33°42' W 118°08'0 0.0
2017-Oct-02 15:26N 33°42' W 118°08'0 0.0
2017-Oct-02 14:44N 33°42' W 118°08'0 0.0
2017-Oct-02 14:29N 33°42' W 118°08'0 0.1
2017-Oct-02 13:59N 33°42' W 118°08'0 0.0
2017-Oct-02 13:29N 33°42' W 118°08'0 0.0
2017-Oct-02 12:59N 33°42' W 118°08'0 0.1
2017-Oct-02 12:26N 33°42' W 118°08'0 0.0
2017-Oct-02 11:59N 33°42' W 118°08'0 0.0
2017-Oct-02 11:26N 33°42' W 118°08'0 0.0
2017-Oct-02 10:50N 33°42' W 118°08'0 0.0
2017-Oct-02 10:26N 33°42' W 118°08'0 0.0
2017-Oct-02 09:59N 33°42' W 118°08'0 0.0
2017-Oct-02 09:20N 33°42' W 118°08'0 0.0
2017-Oct-02 08:56N 33°42' W 118°08'0 0.0
2017-Oct-02 08:29N 33°42' W 118°08'0 0.0
2017-Oct-02 07:56N 33°42' W 118°08'0 0.0
2017-Oct-02 07:26N 33°42' W 118°08'0 0.0
2017-Oct-02 06:56N 33°42' W 118°08'0 0.0
2017-Oct-02 06:29N 33°42' W 118°08'0 0.1
2017-Oct-02 05:56N 33°42' W 118°07'0 0.0
2017-Oct-02 05:29N 33°42' W 118°07'0 0.0
2017-Oct-02 04:59N 33°42' W 118°07'0 0.0
2017-Oct-02 04:29N 33°42' W 118°07'0 0.0
2017-Oct-02 03:56N 33°42' W 118°07'0 0.0
2017-Oct-02 03:29N 33°42' W 118°07'0 0.0
2017-Oct-02 02:59N 33°42' W 118°07'0 0.0
2017-Oct-02 02:29N 33°42' W 118°07'0 0.0
2017-Oct-02 01:59N 33°42' W 118°07'0 0.0
2017-Oct-02 01:26N 33°42' W 118°07'0 0.0
2017-Oct-02 00:59N 33°42' W 118°07'0 0.0
2017-Oct-02 00:29N 33°42' W 118°07'0 0.0
2017-Oct-01 23:59N 33°42' W 118°07'0 0.0
2017-Oct-01 23:26N 33°42' W 118°07'0 0.0
2017-Oct-01 22:56N 33°42' W 118°07'0 0.0
2017-Oct-01 22:29N 33°42' W 118°07'0 0.0
2017-Oct-01 21:59N 33°42' W 118°07'0 0.0
2017-Oct-01 21:23N 33°42' W 118°07'0 0.0
2017-Oct-01 20:56N 33°42' W 118°07'0 0.1
2017-Oct-01 20:29N 33°42' W 118°07'0 0.0
2017-Oct-01 19:59N 33°42' W 118°07'0 0.1
2017-Oct-01 19:26N 33°42' W 118°07'0 0.0
2017-Oct-01 18:59N 33°42' W 118°07'0 0.1
2017-Oct-01 18:26N 33°42' W 118°07'0 0.0
2017-Oct-01 17:56N 33°42' W 118°07'0 0.1
2017-Oct-01 17:29N 33°42' W 118°07'0 0.1
2017-Oct-01 16:59N 33°42' W 118°07'0 0.0
2017-Oct-01 16:29N 33°42' W 118°07'0 0.0
2017-Oct-01 15:59N 33°42' W 118°07'0 0.0
2017-Oct-01 15:29N 33°42' W 118°07'0 0.0
2017-Oct-01 14:56N 33°42' W 118°07'0 0.0
2017-Oct-01 14:26N 33°42' W 118°07'0 0.0
2017-Oct-01 13:56N 33°42' W 118°07'0 0.0
2017-Oct-01 13:29N 33°42' W 118°07'0 0.0
2017-Oct-01 12:59N 33°42' W 118°07'0 0.0
2017-Oct-01 12:29N 33°42' W 118°07'0 0.0
2017-Oct-01 11:59N 33°42' W 118°07'0 0.0
2017-Oct-01 11:29N 33°42' W 118°07'0 0.1
2017-Oct-01 10:59N 33°42' W 118°07'0 0.0
2017-Oct-01 10:29N 33°42' W 118°07'0 0.0
2017-Oct-01 09:56N 33°42' W 118°07'0 0.0
2017-Oct-01 09:26N 33°42' W 118°07'0 0.1
2017-Oct-01 08:59N 33°42' W 118°07'0 0.3
2017-Oct-01 08:29N 33°42' W 118°07'0 0.1
2017-Oct-01 07:59N 33°42' W 118°07'0 0.0
2017-Oct-01 07:29N 33°42' W 118°07'0 0.0
2017-Oct-01 06:59N 33°42' W 118°07'0 0.0
2017-Oct-01 06:29N 33°42' W 118°07'0 0.0
2017-Oct-01 05:56N 33°42' W 118°07'0 0.1
2017-Oct-01 05:29N 33°42' W 118°07'0 0.0
2017-Oct-01 04:59N 33°42' W 118°07'0 0.0
2017-Oct-01 04:29N 33°42' W 118°07'0 0.0
2017-Oct-01 03:56N 33°42' W 118°07'0 0.0
2017-Oct-01 03:29N 33°42' W 118°07'0 0.0
2017-Oct-01 02:59N 33°42' W 118°07'0 0.0
2017-Sep-30 01:59N 33°42' W 118°07'0 0.0
2017-Sep-30 01:29N 33°42' W 118°07'0 0.0
2017-Sep-30 00:59N 33°42' W 118°07'0 0.0
2017-Sep-30 00:29N 33°42' W 118°07'0 0.1
2017-Sep-29 23:59N 33°42' W 118°07'0 0.0
2017-Sep-29 23:29N 33°42' W 118°07'0 0.0
2017-Sep-29 22:59N 33°42' W 118°07'0 0.1
2017-Sep-29 22:29N 33°42' W 118°07'0 0.0
2017-Sep-29 21:59N 33°42' W 118°07'0 0.0
2017-Sep-29 21:29N 33°42' W 118°07'0 0.1
2017-Sep-29 20:59N 33°42' W 118°07'0 0.0
2017-Sep-29 20:29N 33°42' W 118°07'0 0.0
2017-Sep-29 19:59N 33°42' W 118°07'0 0.0
2017-Sep-29 19:29N 33°42' W 118°07'0 0.0
2017-Sep-29 18:56N 33°42' W 118°07'0 0.0
2017-Sep-29 18:29N 33°42' W 118°07'0 0.0
2017-Sep-29 17:59N 33°42' W 118°07'0 0.0
2017-Sep-29 17:29N 33°42' W 118°07'0 0.0
2017-Sep-29 16:59N 33°42' W 118°07'0 0.1
2017-Sep-29 16:29N 33°42' W 118°07'0 0.0
2017-Sep-29 15:56N 33°42' W 118°07'0 0.0
2017-Sep-29 15:26N 33°42' W 118°07'0 0.0
2017-Sep-29 14:59N 33°42' W 118°07'0 0.0
2017-Sep-29 14:29N 33°42' W 118°07'0 0.0
2017-Sep-29 13:59N 33°42' W 118°07'0 0.0
2017-Sep-29 13:29N 33°42' W 118°07'0 0.1
2017-Sep-29 12:59N 33°42' W 118°07'0 0.1
2017-Sep-29 12:29N 33°42' W 118°07'0 0.2
2017-Sep-29 11:59N 33°42' W 118°07'0 0.1
2017-Sep-29 11:29N 33°42' W 118°07'0 0.1
2017-Sep-29 10:59N 33°42' W 118°07'0 0.1
2017-Sep-29 10:30N 33°42' W 118°07'0 0.9
2017-Sep-29 10:00N 33°41' W 118°07'2 3.0
2017-Sep-29 09:30N 33°40' W 118°08'2 4.9
2017-Sep-29 09:00N 33°38' W 118°09'3 5.8
2017-Sep-29 08:30N 33°35' W 118°10'3 6.5
2017-Sep-29 08:00N 33°32' W 118°08'4 7.7
2017-Sep-29 07:30N 33°28' W 118°07'5 9.5
2017-Sep-29 07:00N 33°24' W 118°05'510.7
2017-Sep-29 06:30N 33°19' W 118°03'4 7.4
2017-Sep-29 06:00N 33°15' W 118°01'4 7.3
2017-Sep-29 05:30N 33°12' W 117°60'510.8
2017-Sep-29 05:00N 33°06' W 118°00'612.4
2017-Sep-29 04:30N 33°01' W 118°02'612.7
2017-Sep-29 04:00N 32°54' W 118°05'612.8
2017-Sep-29 03:30N 32°48' W 118°07'612.3
2017-Sep-29 03:00N 32°42' W 118°09'612.4
2017-Sep-29 02:30N 32°40' W 118°16'612.6
2017-Sep-29 02:00N 32°37' W 118°22'612.2
2017-Sep-29 01:30N 32°34' W 118°29'612.2
2017-Sep-29 01:00N 32°28' W 118°31'612.3
2017-Sep-29 00:30N 32°23' W 118°35'612.4
2017-Sep-29 00:00N 32°17' W 118°38'612.4
2017-Sep-28 23:30N 32°12' W 118°41'611.8
2017-Sep-28 23:00N 32°06' W 118°41'612.2
2017-Sep-28 22:30N 31°60' W 118°41'612.0
2017-Sep-28 22:00N 31°54' W 118°42'612.1
2017-Sep-28 21:30N 31°48' W 118°41'612.2
2017-Sep-28 21:00N 31°41' W 118°41'612.2
2017-Sep-28 20:30N 31°35' W 118°42'612.0
2017-Sep-28 20:00N 31°29' W 118°41'2 4.2
2017-Sep-28 19:30N 31°27' W 118°42'1 1.8
2017-Sep-28 19:00N 31°28' W 118°43'1 1.7
2017-Sep-28 18:30N 31°28' W 118°43'1 1.6
2017-Sep-28 18:00N 31°28' W 118°44'1 1.6
2017-Sep-28 17:30N 31°28' W 118°45'1 1.7
2017-Sep-28 17:00N 31°28' W 118°46'1 2.7
2017-Sep-28 16:30N 31°29' W 118°48'1 2.9
2017-Sep-28 16:00N 31°30' W 118°49'1 2.5
2017-Sep-28 15:30N 31°30' W 118°50'1 1.7
2017-Sep-28 15:00N 31°31' W 118°51'1 1.5
2017-Sep-28 14:30N 31°31' W 118°52'1 2.0
2017-Sep-28 14:00N 31°32' W 118°53'1 1.5
2017-Sep-28 13:30N 31°32' W 118°53'1 1.3
2017-Sep-28 13:00N 31°33' W 118°54'1 1.6
2017-Sep-28 12:30N 31°33' W 118°55'1 1.2
2017-Sep-28 12:00N 31°33' W 118°55'0 0.7
2017-Sep-28 11:30N 31°33' W 118°56'1 1.4
2017-Sep-28 11:00N 31°34' W 118°56'0 0.7
2017-Sep-28 10:30N 31°34' W 118°57'1 1.5
2017-Sep-28 10:00N 31°35' W 118°58'1 1.2
2017-Sep-28 09:30N 31°35' W 118°58'1 1.7
2017-Sep-28 09:00N 31°36' W 118°59'1 2.6
2017-Sep-28 08:30N 31°36' W 118°60'1 1.2
2017-Sep-28 08:00N 31°37' W 119°00'1 1.6
2017-Sep-28 07:30N 31°37' W 119°01'1 1.7
2017-Sep-28 07:00N 31°38' W 119°02'1 1.2
2017-Sep-28 06:30N 31°38' W 119°02'1 2.1
2017-Sep-28 06:00N 31°39' W 119°03'1 1.4
2017-Sep-28 05:30N 31°40' W 119°04'1 1.5
2017-Sep-28 05:00N 31°40' W 119°04'1 1.9
2017-Sep-28 04:30N 31°41' W 119°05'1 1.1
2017-Sep-28 04:00N 31°41' W 119°05'1 2.1
2017-Sep-28 03:30N 31°42' W 119°06'1 1.1
2017-Sep-28 03:00N 31°43' W 119°07'1 1.8
2017-Sep-28 02:30N 31°43' W 119°07'1 1.3
2017-Sep-28 02:00N 31°44' W 119°08'1 1.9
2017-Sep-28 01:30N 31°45' W 119°09'1 1.5
2017-Sep-28 01:00N 31°45' W 119°09'1 1.9
2017-Sep-28 00:30N 31°46' W 119°10'1 1.9
2017-Sep-28 00:00N 31°47' W 119°10'1 1.2
2017-Sep-27 23:30N 31°47' W 119°11'1 1.2
2017-Sep-27 23:00N 31°48' W 119°11'1 1.7
2017-Sep-27 22:30N 31°48' W 119°12'1 1.2
2017-Sep-27 22:00N 31°49' W 119°12'1 1.2
2017-Sep-27 21:30N 31°49' W 119°12'1 1.3
2017-Sep-27 21:00N 31°50' W 119°13'1 1.2
2017-Sep-27 20:30N 31°50' W 119°13'1 1.2
2017-Sep-27 20:00N 31°51' W 119°14'1 1.2
2017-Sep-27 19:30N 31°51' W 119°15'1 1.4
2017-Sep-27 19:00N 31°51' W 119°15'1 1.5
2017-Sep-27 18:30N 31°52' W 119°16'1 1.6
2017-Sep-27 18:00N 31°53' W 119°16'1 1.5
2017-Sep-27 17:30N 31°53' W 119°17'1 2.7
2017-Sep-27 17:00N 31°54' W 119°18'2 4.8
2017-Sep-27 16:30N 31°55' W 119°20'3 5.8
2017-Sep-27 16:00N 31°57' W 119°23'2 4.8
2017-Sep-27 15:30N 31°59' W 119°25'1 1.8
2017-Sep-27 15:00N 31°59' W 119°26'1 1.1
2017-Sep-27 14:30N 31°59' W 119°27'1 1.4
2017-Sep-27 14:00N 31°60' W 119°27'0 0.8
2017-Sep-27 13:30N 31°60' W 119°28'0 0.8
2017-Sep-27 13:00N 31°60' W 119°28'1 1.3
2017-Sep-27 12:30N 32°00' W 119°29'1 1.7
2017-Sep-27 12:00N 31°60' W 119°30'4 7.1
2017-Sep-27 11:30N 31°57' W 119°33'1 1.6
2017-Sep-27 11:00N 31°56' W 119°32'0 0.5
2017-Sep-27 10:30N 31°56' W 119°32'0 0.6
2017-Sep-27 10:00N 31°57' W 119°32'0 0.6
2017-Sep-27 09:30N 31°57' W 119°32'0 0.8
2017-Sep-27 09:00N 31°57' W 119°32'0 0.8
2017-Sep-27 08:30N 31°58' W 119°32'0 0.8
2017-Sep-27 08:00N 31°58' W 119°32'0 0.9
2017-Sep-27 07:30N 31°58' W 119°31'1 1.0
2017-Sep-27 07:00N 31°59' W 119°31'1 1.4
2017-Sep-27 06:30N 31°59' W 119°30'1 2.9
2017-Sep-27 06:00N 32°01' W 119°29'4 7.2
2017-Sep-27 05:30N 32°02' W 119°26'612.0
2017-Sep-27 05:00N 32°06' W 119°20'713.2
2017-Sep-27 04:30N 32°09' W 119°13'713.1
2017-Sep-27 04:00N 32°12' W 119°06'613.0
2017-Sep-27 03:30N 32°16' W 119°00'612.5
2017-Sep-27 03:00N 32°19' W 118°54'612.8
2017-Sep-27 02:30N 32°23' W 118°47'612.9
2017-Sep-27 02:00N 32°26' W 118°41'612.7
2017-Sep-27 01:30N 32°30' W 118°35'612.0
2017-Sep-27 01:00N 32°33' W 118°28'611.7
2017-Sep-27 00:30N 32°36' W 118°23'612.0
2017-Sep-27 00:00N 32°39' W 118°17'611.6
2017-Sep-26 23:30N 32°42' W 118°11'611.3
2017-Sep-26 23:00N 32°47' W 118°08'612.5
2017-Sep-26 22:30N 32°53' W 118°06'612.9
2017-Sep-26 22:00N 32°60' W 118°04'713.1
2017-Sep-26 21:30N 33°06' W 118°03'612.5
2017-Sep-26 21:00N 33°12' W 118°04'612.2
2017-Sep-26 20:30N 33°18' W 118°06'611.1
2017-Sep-26 20:00N 33°23' W 118°08'510.7
2017-Sep-26 19:30N 33°28' W 118°10'611.3
2017-Sep-26 19:00N 33°34' W 118°12'510.2
2017-Sep-26 18:30N 33°39' W 118°11'4 7.4
2017-Sep-26 18:00N 33°42' W 118°11'2 4.9
2017-Sep-26 17:30N 33°44' W 118°13'  
Track history (hours):
 
Tides and Currents Weather Stations Pressure Air Temp Water Temp Dewpoint Dewpoint Depression Visibility Wind Speed Wind Dir Waves Ship Positions

New Century

Last reported at 2017-Oct-06 14:14 UTC. Time now 2017-Oct-19 18:37 UTC.
Position N 24°20' W 114°59'.
Warning: this ship's position is 13 days out of date.

Length 330 m; draft 11 m.

Type: Tanker. MMSI: 636012275.

Date/timePositionNaut miles runAvg speedWind from/ knotsBaromVisibWave heightAir tempDewpointWater temp
2017-Oct-06 14:14N 24°20' W 114°59'313.5
2017-Oct-06 14:00N 24°23' W 114°60'2113.7
2017-Oct-06 12:27N 24°44' W 115°06'613.8
2017-Oct-06 11:59N 24°50' W 115°08'3114.0
2017-Oct-06 09:47N 25°19' W 115°18'414.2
2017-Oct-06 09:29N 25°24' W 115°19'4414.3
2017-Oct-06 06:24N 26°06' W 115°33'5214.1
2017-Oct-06 02:44N 26°55' W 115°49'914.1
2017-Oct-06 02:05N 27°04' W 115°52'214.2
2017-Oct-06 01:57N 27°06' W 115°52'1314.9
2017-Oct-06 01:04N 27°19' W 115°57'115.0
2017-Oct-06 01:01N 27°20' W 115°57'3314.5
2017-Oct-05 22:45N 27°51' W 116°07'414.3
2017-Oct-05 22:30N 27°54' W 116°08'2314.0
2017-Oct-05 20:53N 28°16' W 116°15'1213.9
2017-Oct-05 20:01N 28°28' W 116°19'114.0
2017-Oct-05 19:58N 28°28' W 116°19'814.0
2017-Oct-05 19:25N 28°36' W 116°22'913.8
2017-Oct-05 18:46N 28°44' W 116°25'413.7
2017-Oct-05 18:29N 28°48' W 116°26'1513.5
2017-Oct-05 17:22N 29°03' W 116°30'513.5
2017-Oct-05 17:00N 29°08' W 116°32'2013.2
2017-Oct-05 15:28N 29°27' W 116°39'713.4
2017-Oct-05 14:55N 29°34' W 116°41'813.3
2017-Oct-05 14:19N 29°42' W 116°43'413.3
2017-Oct-05 14:00N 29°46' W 116°45'713.4
2017-Oct-05 13:30N 29°52' W 116°47'714.0
2017-Oct-05 13:00N 29°59' W 116°49'714.2
2017-Oct-05 12:31N 30°06' W 116°51'714.3
2017-Oct-05 12:00N 30°13' W 116°53'714.5
2017-Oct-05 11:31N 30°20' W 116°55'714.3
2017-Oct-05 11:00N 30°27' W 116°57'714.0
2017-Oct-05 10:30N 30°33' W 116°60'714.1
2017-Oct-05 10:00N 30°40' W 117°02'714.0
2017-Oct-05 09:31N 30°47' W 117°04'713.9
2017-Oct-05 09:00N 30°54' W 117°06'713.9
2017-Oct-05 08:30N 31°00' W 117°08'714.0
2017-Oct-05 08:00N 31°07' W 117°10'714.3
2017-Oct-05 07:30N 31°14' W 117°12'714.2
2017-Oct-05 07:00N 31°21' W 117°15'714.0
2017-Oct-05 06:30N 31°27' W 117°17'714.1
2017-Oct-05 06:01N 31°34' W 117°19'714.1
2017-Oct-05 05:31N 31°41' W 117°21'714.2
2017-Oct-05 05:01N 31°48' W 117°23'713.8
2017-Oct-05 04:30N 31°55' W 117°26'713.5
2017-Oct-05 04:00N 32°01' W 117°28'713.5
2017-Oct-05 03:31N 32°08' W 117°30'713.3
2017-Oct-05 03:00N 32°14' W 117°32'713.1
2017-Oct-05 02:31N 32°20' W 117°34'713.1
2017-Oct-05 02:00N 32°27' W 117°37'713.4
2017-Oct-05 01:31N 32°33' W 117°39'713.3
2017-Oct-05 01:00N 32°39' W 117°43'713.4
2017-Oct-05 00:30N 32°45' W 117°47'713.4
2017-Oct-05 00:01N 32°51' W 117°50'713.5
2017-Oct-04 23:31N 32°57' W 117°54'713.4
2017-Oct-04 23:01N 33°03' W 117°57'611.8
2017-Oct-04 22:30N 33°08' W 118°01'611.5
2017-Oct-04 22:01N 33°13' W 118°04'611.5
2017-Oct-04 21:30N 33°19' W 118°06'612.1
2017-Oct-04 21:00N 33°24' W 118°08'612.0
2017-Oct-04 20:31N 33°30' W 118°11'611.8
2017-Oct-04 20:00N 33°36' W 118°13'510.1
2017-Oct-04 19:30N 33°40' W 118°12'3 6.0
2017-Oct-04 19:01N 33°43' W 118°11'2 4.7
2017-Oct-04 18:30N 33°45' W 118°13'0 0.7
2017-Oct-04 18:00N 33°45' W 118°13'0 0.0
2017-Oct-04 17:26N 33°45' W 118°13'0 0.0
2017-Oct-04 17:00N 33°45' W 118°13'0 0.0
2017-Oct-03 21:09N 33°45' W 118°13'0 0.3
2017-Oct-03 20:52N 33°45' W 118°13'0 1.2
2017-Oct-03 20:30N 33°45' W 118°13'2 4.4
2017-Oct-03 20:00N 33°43' W 118°11'3 6.3
2017-Oct-03 19:30N 33°41' W 118°09'2 3.5
2017-Oct-03 19:00N 33°42' W 118°08'0 0.8
2017-Oct-03 18:29N 33°42' W 118°08'0 0.0
2017-Oct-03 17:59N 33°42' W 118°08'0 0.0
2017-Oct-03 17:26N 33°42' W 118°08'0 0.0
2017-Oct-03 16:59N 33°42' W 118°08'0 0.0
2017-Oct-03 16:29N 33°42' W 118°08'0 0.0
2017-Oct-03 15:59N 33°42' W 118°08'0 0.0
2017-Oct-03 15:26N 33°42' W 118°08'0 0.1
2017-Oct-03 14:56N 33°42' W 118°08'0 0.1
2017-Oct-03 13:59N 33°42' W 118°08'0 0.0
2017-Oct-03 13:29N 33°42' W 118°08'0 0.0
2017-Oct-03 12:59N 33°42' W 118°08'0 0.0
2017-Oct-03 12:29N 33°42' W 118°08'0 0.0
2017-Oct-03 11:56N 33°42' W 118°08'0 0.0
2017-Oct-03 11:26N 33°42' W 118°08'0 0.0
2017-Oct-03 10:59N 33°42' W 118°08'0 0.0
2017-Oct-03 10:29N 33°42' W 118°08'0 0.1
2017-Oct-03 09:59N 33°42' W 118°08'0 0.0
2017-Oct-03 09:29N 33°42' W 118°08'0 0.1
2017-Oct-03 08:59N 33°42' W 118°08'0 0.0
2017-Oct-03 08:29N 33°42' W 118°08'0 0.0
2017-Oct-03 07:59N 33°42' W 118°08'0 0.1
2017-Oct-03 07:29N 33°42' W 118°08'0 0.1
2017-Oct-03 06:56N 33°42' W 118°08'0 0.0
2017-Oct-03 06:29N 33°42' W 118°08'0 0.1
2017-Oct-03 05:59N 33°42' W 118°08'0 0.0
2017-Oct-03 05:29N 33°42' W 118°08'0 0.1
2017-Oct-03 04:56N 33°42' W 118°07'0 0.1
2017-Oct-03 04:29N 33°42' W 118°07'0 0.0
2017-Oct-03 03:59N 33°42' W 118°07'0 0.0
2017-Oct-03 03:29N 33°42' W 118°07'0 0.0
2017-Oct-03 02:59N 33°42' W 118°07'0 0.1
2017-Oct-03 02:29N 33°42' W 118°07'0 0.1
2017-Oct-03 01:59N 33°42' W 118°07'0 0.0
2017-Oct-03 01:29N 33°42' W 118°07'0 0.1
2017-Oct-03 00:59N 33°42' W 118°07'0 0.0
2017-Oct-03 00:26N 33°42' W 118°07'0 0.1
2017-Oct-02 23:59N 33°42' W 118°08'0 0.0
2017-Oct-02 23:26N 33°42' W 118°08'0 0.0
2017-Oct-02 22:59N 33°42' W 118°08'0 0.0
2017-Oct-02 22:29N 33°42' W 118°08'0 0.0
2017-Oct-02 21:50N 33°42' W 118°08'0 0.0
2017-Oct-02 21:20N 33°42' W 118°08'0 0.0
2017-Oct-02 20:56N 33°42' W 118°08'0 0.1
2017-Oct-02 20:14N 33°42' W 118°08'0 0.0
2017-Oct-02 19:50N 33°42' W 118°08'0 0.0
2017-Oct-02 19:29N 33°42' W 118°08'0 0.0
2017-Oct-02 18:56N 33°42' W 118°08'0 0.1
2017-Oct-02 18:26N 33°42' W 118°08'0 0.0
2017-Oct-02 17:56N 33°42' W 118°08'0 0.0
2017-Oct-02 17:26N 33°42' W 118°08'0 0.0
2017-Oct-02 16:50N 33°42' W 118°08'0 0.0
2017-Oct-02 16:26N 33°42' W 118°08'0 0.0
2017-Oct-02 15:56N 33°42' W 118°08'0 0.0
2017-Oct-02 15:26N 33°42' W 118°08'0 0.0
2017-Oct-02 14:44N 33°42' W 118°08'0 0.0
2017-Oct-02 14:29N 33°42' W 118°08'0 0.1
2017-Oct-02 13:59N 33°42' W 118°08'0 0.0
2017-Oct-02 13:29N 33°42' W 118°08'0 0.0
2017-Oct-02 12:59N 33°42' W 118°08'0 0.1
2017-Oct-02 12:26N 33°42' W 118°08'0 0.0
2017-Oct-02 11:59N 33°42' W 118°08'0 0.0
2017-Oct-02 11:26N 33°42' W 118°08'0 0.0
2017-Oct-02 10:50N 33°42' W 118°08'0 0.0
2017-Oct-02 10:26N 33°42' W 118°08'0 0.0
2017-Oct-02 09:59N 33°42' W 118°08'0 0.0
2017-Oct-02 09:20N 33°42' W 118°08'0 0.0
2017-Oct-02 08:56N 33°42' W 118°08'0 0.0
2017-Oct-02 08:29N 33°42' W 118°08'0 0.0
2017-Oct-02 07:56N 33°42' W 118°08'0 0.0
2017-Oct-02 07:26N 33°42' W 118°08'0 0.0
2017-Oct-02 06:56N 33°42' W 118°08'0 0.0
2017-Oct-02 06:29N 33°42' W 118°08'0 0.1
2017-Oct-02 05:56N 33°42' W 118°07'0 0.0
2017-Oct-02 05:29N 33°42' W 118°07'0 0.0
2017-Oct-02 04:59N 33°42' W 118°07'0 0.0
2017-Oct-02 04:29N 33°42' W 118°07'0 0.0
2017-Oct-02 03:56N 33°42' W 118°07'0 0.0
2017-Oct-02 03:29N 33°42' W 118°07'0 0.0
2017-Oct-02 02:59N 33°42' W 118°07'0 0.0
2017-Oct-02 02:29N 33°42' W 118°07'0 0.0
2017-Oct-02 01:59N 33°42' W 118°07'0 0.0
2017-Oct-02 01:26N 33°42' W 118°07'0 0.0
2017-Oct-02 00:59N 33°42' W 118°07'0 0.0
2017-Oct-02 00:29N 33°42' W 118°07'0 0.0
2017-Oct-01 23:59N 33°42' W 118°07'0 0.0
2017-Oct-01 23:26N 33°42' W 118°07'0 0.0
2017-Oct-01 22:56N 33°42' W 118°07'0 0.0
2017-Oct-01 22:29N 33°42' W 118°07'0 0.0
2017-Oct-01 21:59N 33°42' W 118°07'0 0.0
2017-Oct-01 21:23N 33°42' W 118°07'0 0.0
2017-Oct-01 20:56N 33°42' W 118°07'0 0.1
2017-Oct-01 20:29N 33°42' W 118°07'0 0.0
2017-Oct-01 19:59N 33°42' W 118°07'0 0.1
2017-Oct-01 19:26N 33°42' W 118°07'0 0.0
2017-Oct-01 18:59N 33°42' W 118°07'0 0.1
2017-Oct-01 18:26N 33°42' W 118°07'0 0.0
2017-Oct-01 17:56N 33°42' W 118°07'0 0.1
2017-Oct-01 17:29N 33°42' W 118°07'0 0.1
2017-Oct-01 16:59N 33°42' W 118°07'0 0.0
2017-Oct-01 16:29N 33°42' W 118°07'0 0.0
2017-Oct-01 15:59N 33°42' W 118°07'0 0.0
2017-Oct-01 15:29N 33°42' W 118°07'0 0.0
2017-Oct-01 14:56N 33°42' W 118°07'0 0.0
2017-Oct-01 14:26N 33°42' W 118°07'0 0.0
2017-Oct-01 13:56N 33°42' W 118°07'0 0.0
2017-Oct-01 13:29N 33°42' W 118°07'0 0.0
2017-Oct-01 12:59N 33°42' W 118°07'0 0.0
2017-Oct-01 12:29N 33°42' W 118°07'0 0.0
2017-Oct-01 11:59N 33°42' W 118°07'0 0.0
2017-Oct-01 11:29N 33°42' W 118°07'0 0.1
2017-Oct-01 10:59N 33°42' W 118°07'0 0.0
2017-Oct-01 10:29N 33°42' W 118°07'0 0.0
2017-Oct-01 09:56N 33°42' W 118°07'0 0.0
2017-Oct-01 09:26N 33°42' W 118°07'0 0.1
2017-Oct-01 08:59N 33°42' W 118°07'0 0.3
2017-Oct-01 08:29N 33°42' W 118°07'0 0.1
2017-Oct-01 07:59N 33°42' W 118°07'0 0.0
2017-Oct-01 07:29N 33°42' W 118°07'0 0.0
2017-Oct-01 06:59N 33°42' W 118°07'0 0.0
2017-Oct-01 06:29N 33°42' W 118°07'0 0.0
2017-Oct-01 05:56N 33°42' W 118°07'0 0.1
2017-Oct-01 05:29N 33°42' W 118°07'0 0.0
2017-Oct-01 04:59N 33°42' W 118°07'0 0.0
2017-Oct-01 04:29N 33°42' W 118°07'0 0.0
2017-Oct-01 03:56N 33°42' W 118°07'0 0.0
2017-Oct-01 03:29N 33°42' W 118°07'0 0.0
2017-Oct-01 02:59N 33°42' W 118°07'0 0.0
2017-Sep-30 01:59N 33°42' W 118°07'0 0.0
2017-Sep-30 01:29N 33°42' W 118°07'0 0.0
2017-Sep-30 00:59N 33°42' W 118°07'0 0.0
2017-Sep-30 00:29N 33°42' W 118°07'0 0.1
2017-Sep-29 23:59N 33°42' W 118°07'0 0.0
2017-Sep-29 23:29N 33°42' W 118°07'0 0.0
2017-Sep-29 22:59N 33°42' W 118°07'0 0.1
2017-Sep-29 22:29N 33°42' W 118°07'0 0.0
2017-Sep-29 21:59N 33°42' W 118°07'0 0.0
2017-Sep-29 21:29N 33°42' W 118°07'0 0.1
2017-Sep-29 20:59N 33°42' W 118°07'0 0.0
2017-Sep-29 20:29N 33°42' W 118°07'0 0.0
2017-Sep-29 19:59N 33°42' W 118°07'0 0.0
2017-Sep-29 19:29N 33°42' W 118°07'0 0.0
2017-Sep-29 18:56N 33°42' W 118°07'0 0.0
2017-Sep-29 18:29N 33°42' W 118°07'0 0.0
2017-Sep-29 17:59N 33°42' W 118°07'0 0.0
2017-Sep-29 17:29N 33°42' W 118°07'0 0.0
2017-Sep-29 16:59N 33°42' W 118°07'0 0.1
2017-Sep-29 16:29N 33°42' W 118°07'0 0.0
2017-Sep-29 15:56N 33°42' W 118°07'0 0.0
2017-Sep-29 15:26N 33°42' W 118°07'0 0.0
2017-Sep-29 14:59N 33°42' W 118°07'0 0.0
2017-Sep-29 14:29N 33°42' W 118°07'0 0.0
2017-Sep-29 13:59N 33°42' W 118°07'0 0.0
2017-Sep-29 13:29N 33°42' W 118°07'0 0.1
2017-Sep-29 12:59N 33°42' W 118°07'0 0.1
2017-Sep-29 12:29N 33°42' W 118°07'0 0.2
2017-Sep-29 11:59N 33°42' W 118°07'0 0.1
2017-Sep-29 11:29N 33°42' W 118°07'0 0.1
2017-Sep-29 10:59N 33°42' W 118°07'0 0.1
2017-Sep-29 10:30N 33°42' W 118°07'0 0.9
2017-Sep-29 10:00N 33°41' W 118°07'2 3.0
2017-Sep-29 09:30N 33°40' W 118°08'2 4.9
2017-Sep-29 09:00N 33°38' W 118°09'3 5.8
2017-Sep-29 08:30N 33°35' W 118°10'3 6.5
2017-Sep-29 08:00N 33°32' W 118°08'4 7.7
2017-Sep-29 07:30N 33°28' W 118°07'5 9.5
2017-Sep-29 07:00N 33°24' W 118°05'510.7
2017-Sep-29 06:30N 33°19' W 118°03'4 7.4
2017-Sep-29 06:00N 33°15' W 118°01'4 7.3
2017-Sep-29 05:30N 33°12' W 117°60'510.8
2017-Sep-29 05:00N 33°06' W 118°00'612.4
2017-Sep-29 04:30N 33°01' W 118°02'612.7
2017-Sep-29 04:00N 32°54' W 118°05'612.8
2017-Sep-29 03:30N 32°48' W 118°07'612.3
2017-Sep-29 03:00N 32°42' W 118°09'612.4
2017-Sep-29 02:30N 32°40' W 118°16'612.6
2017-Sep-29 02:00N 32°37' W 118°22'612.2
2017-Sep-29 01:30N 32°34' W 118°29'612.2
2017-Sep-29 01:00N 32°28' W 118°31'612.3
2017-Sep-29 00:30N 32°23' W 118°35'612.4
2017-Sep-29 00:00N 32°17' W 118°38'612.4
2017-Sep-28 23:30N 32°12' W 118°41'611.8
2017-Sep-28 23:00N 32°06' W 118°41'612.2
2017-Sep-28 22:30N 31°60' W 118°41'612.0
2017-Sep-28 22:00N 31°54' W 118°42'612.1
2017-Sep-28 21:30N 31°48' W 118°41'612.2
2017-Sep-28 21:00N 31°41' W 118°41'612.2
2017-Sep-28 20:30N 31°35' W 118°42'612.0
2017-Sep-28 20:00N 31°29' W 118°41'2 4.2
2017-Sep-28 19:30N 31°27' W 118°42'1 1.8
2017-Sep-28 19:00N 31°28' W 118°43'1 1.7
2017-Sep-28 18:30N 31°28' W 118°43'1 1.6
2017-Sep-28 18:00N 31°28' W 118°44'1 1.6
2017-Sep-28 17:30N 31°28' W 118°45'1 1.7
2017-Sep-28 17:00N 31°28' W 118°46'1 2.7
2017-Sep-28 16:30N 31°29' W 118°48'1 2.9
2017-Sep-28 16:00N 31°30' W 118°49'1 2.5
2017-Sep-28 15:30N 31°30' W 118°50'1 1.7
2017-Sep-28 15:00N 31°31' W 118°51'1 1.5
2017-Sep-28 14:30N 31°31' W 118°52'1 2.0
2017-Sep-28 14:00N 31°32' W 118°53'1 1.5
2017-Sep-28 13:30N 31°32' W 118°53'1 1.3
2017-Sep-28 13:00N 31°33' W 118°54'1 1.6
2017-Sep-28 12:30N 31°33' W 118°55'1 1.2
2017-Sep-28 12:00N 31°33' W 118°55'0 0.7
2017-Sep-28 11:30N 31°33' W 118°56'1 1.4
2017-Sep-28 11:00N 31°34' W 118°56'0 0.7
2017-Sep-28 10:30N 31°34' W 118°57'1 1.5
2017-Sep-28 10:00N 31°35' W 118°58'1 1.2
2017-Sep-28 09:30N 31°35' W 118°58'1 1.7
2017-Sep-28 09:00N 31°36' W 118°59'1 2.6
2017-Sep-28 08:30N 31°36' W 118°60'1 1.2
2017-Sep-28 08:00N 31°37' W 119°00'1 1.6
2017-Sep-28 07:30N 31°37' W 119°01'1 1.7
2017-Sep-28 07:00N 31°38' W 119°02'1 1.2
2017-Sep-28 06:30N 31°38' W 119°02'1 2.1
2017-Sep-28 06:00N 31°39' W 119°03'1 1.4
2017-Sep-28 05:30N 31°40' W 119°04'1 1.5
2017-Sep-28 05:00N 31°40' W 119°04'1 1.9
2017-Sep-28 04:30N 31°41' W 119°05'1 1.1
2017-Sep-28 04:00N 31°41' W 119°05'1 2.1
2017-Sep-28 03:30N 31°42' W 119°06'1 1.1
2017-Sep-28 03:00N 31°43' W 119°07'1 1.8
2017-Sep-28 02:30N 31°43' W 119°07'1 1.3
2017-Sep-28 02:00N 31°44' W 119°08'1 1.9
2017-Sep-28 01:30N 31°45' W 119°09'1 1.5
2017-Sep-28 01:00N 31°45' W 119°09'1 1.9
2017-Sep-28 00:30N 31°46' W 119°10'1 1.9
2017-Sep-28 00:00N 31°47' W 119°10'1 1.2
2017-Sep-27 23:30N 31°47' W 119°11'1 1.2
2017-Sep-27 23:00N 31°48' W 119°11'1 1.7
2017-Sep-27 22:30N 31°48' W 119°12'1 1.2
2017-Sep-27 22:00N 31°49' W 119°12'1 1.2
2017-Sep-27 21:30N 31°49' W 119°12'1 1.3
2017-Sep-27 21:00N 31°50' W 119°13'1 1.2
2017-Sep-27 20:30N 31°50' W 119°13'1 1.2
2017-Sep-27 20:00N 31°51' W 119°14'1 1.2
2017-Sep-27 19:30N 31°51' W 119°15'1 1.4
2017-Sep-27 19:00N 31°51' W 119°15'1 1.5
2017-Sep-27 18:30N 31°52' W 119°16'1 1.6
2017-Sep-27 18:00N 31°53' W 119°16'1 1.5
2017-Sep-27 17:30N 31°53' W 119°17'1 2.7
2017-Sep-27 17:00N 31°54' W 119°18'2 4.8
2017-Sep-27 16:30N 31°55' W 119°20'3 5.8
2017-Sep-27 16:00N 31°57' W 119°23'2 4.8
2017-Sep-27 15:30N 31°59' W 119°25'1 1.8
2017-Sep-27 15:00N 31°59' W 119°26'1 1.1
2017-Sep-27 14:30N 31°59' W 119°27'1 1.4
2017-Sep-27 14:00N 31°60' W 119°27'0 0.8
2017-Sep-27 13:30N 31°60' W 119°28'0 0.8
2017-Sep-27 13:00N 31°60' W 119°28'1 1.3
2017-Sep-27 12:30N 32°00' W 119°29'1 1.7
2017-Sep-27 12:00N 31°60' W 119°30'4 7.1
2017-Sep-27 11:30N 31°57' W 119°33'1 1.6
2017-Sep-27 11:00N 31°56' W 119°32'0 0.5
2017-Sep-27 10:30N 31°56' W 119°32'0 0.6
2017-Sep-27 10:00N 31°57' W 119°32'0 0.6
2017-Sep-27 09:30N 31°57' W 119°32'0 0.8
2017-Sep-27 09:00N 31°57' W 119°32'0 0.8
2017-Sep-27 08:30N 31°58' W 119°32'0 0.8
2017-Sep-27 08:00N 31°58' W 119°32'0 0.9
2017-Sep-27 07:30N 31°58' W 119°31'1 1.0
2017-Sep-27 07:00N 31°59' W 119°31'1 1.4
2017-Sep-27 06:30N 31°59' W 119°30'1 2.9
2017-Sep-27 06:00N 32°01' W 119°29'4 7.2
2017-Sep-27 05:30N 32°02' W 119°26'612.0
2017-Sep-27 05:00N 32°06' W 119°20'713.2
2017-Sep-27 04:30N 32°09' W 119°13'713.1
2017-Sep-27 04:00N 32°12' W 119°06'613.0
2017-Sep-27 03:30N 32°16' W 119°00'612.5
2017-Sep-27 03:00N 32°19' W 118°54'612.8
2017-Sep-27 02:30N 32°23' W 118°47'612.9
2017-Sep-27 02:00N 32°26' W 118°41'612.7
2017-Sep-27 01:30N 32°30' W 118°35'612.0
2017-Sep-27 01:00N 32°33' W 118°28'611.7
2017-Sep-27 00:30N 32°36' W 118°23'612.0
2017-Sep-27 00:00N 32°39' W 118°17'611.6
2017-Sep-26 23:30N 32°42' W 118°11'611.3
2017-Sep-26 23:00N 32°47' W 118°08'612.5
2017-Sep-26 22:30N 32°53' W 118°06'612.9
2017-Sep-26 22:00N 32°60' W 118°04'713.1
2017-Sep-26 21:30N 33°06' W 118°03'612.5
2017-Sep-26 21:00N 33°12' W 118°04'612.2
2017-Sep-26 20:30N 33°18' W 118°06'611.1
2017-Sep-26 20:00N 33°23' W 118°08'510.7
2017-Sep-26 19:30N 33°28' W 118°10'611.3
2017-Sep-26 19:00N 33°34' W 118°12'510.2
2017-Sep-26 18:30N 33°39' W 118°11'4 7.4
2017-Sep-26 18:00N 33°42' W 118°11'2 4.9
2017-Sep-26 17:30N 33°44' W 118°13'  

Dump ship's entire track history